Time;durP1;ratioP1;P1;durP2;ratioP2;P2;SDS_P1;SDS_P2;PMS_P1;PMS_P2;Temp;Humidity;BMP_temperature;BMP_pressure;BME280_temperature;BME280_humidity;BME280_pressure;Samples;Min_cycle;Max_cycle;Signal;HPM_P1;HPM_P2
2021/07/12 00:03:32;;;;;;;4.20;3.80;;;;;;;21.57;100.00;100632.55;713824;1176;114039;-72
2021/07/12 00:18:34;;;;;;;4.73;3.75;;;;;;;21.53;100.00;100620.60;713941;1200;115190;-72
2021/07/12 00:33:37;;;;;;;6.90;4.73;;;;;;;21.52;100.00;100616.28;713794;1201;115419;-73
2021/07/12 00:48:39;;;;;;;4.93;4.13;;;;;;;21.44;100.00;100652.80;713756;1202;114084;-72
2021/07/12 01:03:41;;;;;;;5.57;4.00;;;;;;;21.34;100.00;100636.33;713839;1200;114562;-73
2021/07/12 01:18:58;;;;;;;4.78;4.13;;;;;;;21.00;100.00;100602.50;713933;1167;114371;-73
2021/07/12 01:34:55;;;;;;;5.90;4.67;;;;;;;20.76;100.00;100608.09;713796;1199;115621;-74
2021/07/12 01:50:10;;;;;;;5.73;4.90;;;;;;;20.66;100.00;100564.92;713726;1177;114009;-73
2021/07/12 02:05:19;;;;;;;7.15;4.68;;;;;;;20.65;100.00;100507.30;713954;1200;114133;-72
2021/07/12 02:20:24;;;;;;;;;;;;;;;20.39;100.00;100516.79;714033;1199;116097;-73
2021/07/12 02:35:28;;;;;;;6.03;4.45;;;;;;;20.37;100.00;100513.48;713914;1199;101263;-71
2021/07/12 02:50:31;;;;;;;6.10;4.70;;;;;;;20.56;100.00;100506.66;714041;1204;115080;-75
2021/07/12 03:05:33;;;;;;;7.83;5.25;;;;;;;20.36;100.00;100521.67;713766;1199;115475;-74
2021/07/12 03:20:38;;;;;;;7.20;5.13;;;;;;;20.41;100.00;100517.41;713694;1200;115671;-71
2021/07/12 03:35:46;;;;;;;7.80;5.45;;;;;;;20.57;100.00;100508.28;713877;1200;115587;-71
2021/07/12 03:50:48;;;;;;;7.58;5.00;;;;;;;20.81;100.00;100553.36;713808;1199;114639;-72
2021/07/12 04:05:51;;;;;;;8.57;6.33;;;;;;;21.18;100.00;100513.94;713910;1199;113962;-72
2021/07/12 04:20:53;;;;;;;9.38;6.20;;;;;;;21.48;100.00;100534.98;713836;1205;115686;-73
2021/07/12 04:35:55;;;;;;;8.60;6.73;;;;;;;21.55;100.00;100534.01;713940;1203;113965;-73
2021/07/12 04:50:57;;;;;;;7.88;5.80;;;;;;;21.73;100.00;100529.93;713834;1199;114388;-72
2021/07/12 05:06:00;;;;;;;10.05;6.45;;;;;;;22.01;100.00;100524.39;716541;1166;114017;-76
2021/07/12 05:21:02;;;;;;;6.67;5.93;;;;;;;22.47;100.00;100519.28;713781;1200;115804;-74
2021/07/12 05:36:05;;;;;;;5.93;5.38;;;;;;;23.08;100.00;100508.20;713823;1202;115218;-76
2021/07/12 05:51:07;;;;;;;7.85;5.95;;;;;;;23.79;100.00;100496.69;713726;1202;114472;-76
2021/07/12 06:06:09;;;;;;;7.08;5.80;;;;;;;24.39;100.00;100483.61;713712;1200;114633;-85
2021/07/12 06:21:11;;;;;;;8.18;5.15;;;;;;;24.92;100.00;100462.61;714619;1202;115109;-85
2021/07/12 06:36:13;;;;;;;8.53;4.70;;;;;;;25.68;100.00;100449.58;714274;1177;114156;-83
2021/07/12 06:51:16;;;;;;;5.13;4.50;;;;;;;26.15;100.00;100438.03;714036;1202;114975;-83
2021/07/12 07:06:19;;;;;;;5.00;4.50;;;;;;;26.67;100.00;100437.25;714672;1202;114754;-82
2021/07/12 07:21:21;;;;;;;6.10;4.00;;;;;;;27.44;100.00;100427.11;715633;1176;114140;-82
2021/07/12 07:36:24;;;;;;;5.10;4.23;;;;;;;28.20;100.00;100428.52;715997;1203;113974;-85
2021/07/12 07:51:26;;;;;;;7.03;6.00;;;;;;;28.85;100.00;100435.00;716028;1181;113829;-85
2021/07/12 08:06:34;;;;;;;6.17;5.57;;;;;;;29.34;100.00;100427.95;716044;1176;114713;-86
2021/07/12 08:21:40;;;;;;;6.20;5.60;;;;;;;29.79;100.00;100423.14;715412;1202;115799;-80
2021/07/12 08:36:42;;;;;;;7.95;6.40;;;;;;;30.68;100.00;100415.21;715703;1206;114883;-80
2021/07/12 08:51:44;;;;;;;9.70;5.30;;;;;;;31.30;99.20;100413.42;715440;1188;114124;-80
2021/07/12 09:07:01;;;;;;;5.40;4.87;;;;;;;32.03;98.10;100398.70;714410;1200;115210;-86
2021/07/12 09:22:09;;;;;;;;;;;;;;;32.44;89.85;100377.93;716055;1203;114756;-81
2021/07/12 09:37:14;;;;;;;6.70;5.10;;;;;;;32.97;88.76;100367.30;714479;1202;100877;-73
2021/07/12 09:52:19;;;;;;;7.63;5.37;;;;;;;33.61;90.12;100345.53;714360;1202;114243;-73
2021/07/12 10:07:23;;;;;;;10.03;6.33;;;;;;;34.22;84.70;100337.75;716179;1202;115054;-73
2021/07/12 10:22:32;;;;;;;6.65;5.80;;;;;;;34.50;81.91;100318.90;713729;1202;115314;-73
2021/07/12 10:37:40;;;;;;;6.18;5.28;;;;;;;34.69;78.23;100327.03;713722;1202;115298;-74
2021/07/12 10:52:44;;;;;;;6.50;4.63;;;;;;;35.13;72.43;100319.52;713858;1205;114258;-74
2021/07/12 11:07:48;;;;;;;5.80;5.23;;;;;;;35.94;69.30;100289.09;713934;1202;115031;-73
2021/07/12 11:22:52;;;;;;;8.43;5.47;;;;;;;34.66;68.71;100279.41;713850;1202;114203;-71
2021/07/12 11:38:03;;;;;;;7.93;5.93;;;;;;;33.51;70.47;100251.31;713798;1202;114531;-74
2021/07/12 11:53:07;;;;;;;8.50;5.98;;;;;;;35.06;71.09;100210.91;713850;1200;114186;-74
2021/07/12 12:08:16;;;;;;;6.90;5.75;;;;;;;33.83;68.09;100205.53;713865;1190;114568;-77
2021/07/12 12:23:25;;;;;;;6.23;5.20;;;;;;;32.15;68.91;100164.27;713880;1202;114291;-76
2021/07/12 12:38:28;;;;;;;9.55;5.58;;;;;;;32.27;70.71;100162.05;714068;1202;114271;-75
2021/07/12 12:53:31;;;;;;;7.03;5.07;;;;;;;32.51;70.60;100145.81;714008;1200;114817;-76
2021/07/12 13:08:33;;;;;;;9.15;5.40;;;;;;;32.24;72.77;100130.03;713836;1201;114287;-76
2021/07/12 13:23:36;;;;;;;13.10;5.90;;;;;;;32.13;75.56;100125.78;713794;1202;114928;-77
2021/07/12 13:38:38;;;;;;;11.40;6.00;;;;;;;32.26;74.19;100117.01;713921;1200;114105;-75
2021/07/12 13:53:40;;;;;;;11.85;7.53;;;;;;;32.88;72.13;100119.14;713881;1181;113520;-76
2021/07/12 14:08:42;;;;;;;6.60;5.67;;;;;;;32.96;72.22;100098.69;713803;1202;114395;-77
2021/07/12 14:23:46;;;;;;;7.03;6.10;;;;;;;32.24;71.33;100102.11;713223;1202;115282;-77
2021/07/12 14:38:48;;;;;;;8.63;6.90;;;;;;;31.38;72.96;100114.02;714678;1201;113791;-76
2021/07/12 14:53:56;;;;;;;8.18;6.53;;;;;;;30.79;74.81;100120.97;714094;1202;114993;-77
2021/07/12 15:08:58;;;;;;;10.57;6.20;;;;;;;28.56;77.56;100141.13;714327;1200;114024;-76
2021/07/12 15:24:01;;;;;;;14.05;7.15;;;;;;;28.35;79.08;100158.23;714186;1202;115410;-72
2021/07/12 15:39:03;;;;;;;10.23;7.27;;;;;;;28.18;84.31;100153.75;713853;1205;115616;-72
2021/07/12 15:54:07;;;;;;;8.77;6.50;;;;;;;27.06;88.43;100179.06;713680;1202;115125;-73
2021/07/12 16:09:09;;;;;;;8.50;6.90;;;;;;;26.56;93.87;100212.97;713673;1200;115462;-75
2021/07/12 16:24:12;;;;;;;29.70;15.85;;;;;;;26.40;95.09;100213.78;713719;1202;113805;-74
2021/07/12 16:39:14;;;;;;;12.50;7.60;;;;;;;26.18;95.51;100184.08;714306;1202;114168;-85
2021/07/12 16:54:16;;;;;;;11.95;8.30;;;;;;;26.20;96.82;100155.10;715485;1185;113971;-80
2021/07/12 17:09:20;;;;;;;15.50;9.53;;;;;;;25.83;98.33;100150.11;715196;1176;113884;-78
2021/07/12 17:24:22;;;;;;;22.18;13.53;;;;;;;25.47;100.00;100166.33;713562;1177;114045;-77
2021/07/12 17:39:24;;;;;;;12.37;8.50;;;;;;;25.29;100.00;100171.82;714036;1177;115335;-79
2021/07/12 17:54:26;;;;;;;40.20;26.33;;;;;;;24.87;100.00;100178.13;714142;1177;114255;-86
2021/07/12 18:09:28;;;;;;;19.15;11.88;;;;;;;24.93;100.00;100195.98;714103;1200;114637;-87
2021/07/12 18:24:32;;;;;;;15.70;11.17;;;;;;;24.58;100.00;100192.16;715341;1182;114341;-84
2021/07/12 18:39:35;;;;;;;17.25;12.35;;;;;;;24.40;100.00;100211.00;716295;1201;115652;-77
2021/07/12 18:54:37;;;;;;;14.73;9.90;;;;;;;23.65;100.00;100221.01;714446;1205;115206;-78
2021/07/12 19:09:40;;;;;;;19.93;11.53;;;;;;;23.48;100.00;100233.33;717655;1203;114471;-78
2021/07/12 19:24:43;;;;;;;15.08;10.05;;;;;;;23.05;100.00;100242.97;715275;1202;116006;-85
2021/07/12 19:39:47;;;;;;;15.57;12.83;;;;;;;22.79;100.00;100238.65;715881;1205;114743;-82
2021/07/12 19:54:49;;;;;;;23.50;15.73;;;;;;;22.43;100.00;100281.02;714187;1201;114498;-83
2021/07/12 20:09:52;;;;;;;19.93;12.48;;;;;;;22.28;100.00;100361.42;714577;1177;114323;-82
2021/07/12 20:24:56;;;;;;;17.17;9.57;;;;;;;22.60;100.00;100334.80;714520;1200;114765;-83
2021/07/12 20:39:58;;;;;;;10.97;7.43;;;;;;;22.32;100.00;100300.38;714522;1177;114158;-83
2021/07/12 20:55:01;;;;;;;11.85;7.78;;;;;;;22.30;100.00;100238.31;714653;1202;114909;-86
2021/07/12 21:10:05;;;;;;;14.87;9.77;;;;;;;22.35;100.00;100209.94;714296;1200;113659;-84
2021/07/12 21:25:08;;;;;;;12.20;8.70;;;;;;;22.24;100.00;100205.27;714690;1176;114057;-84
2021/07/12 21:40:13;;;;;;;13.18;9.93;;;;;;;22.16;100.00;100187.63;714473;1200;114260;-84
2021/07/12 21:55:17;;;;;;;12.80;8.10;;;;;;;21.42;100.00;100179.89;714613;1202;114067;-84
2021/07/12 22:10:27;;;;;;;13.58;9.30;;;;;;;21.37;100.00;100171.69;714990;1178;114571;-85
2021/07/12 22:25:30;;;;;;;19.15;8.50;;;;;;;21.32;100.00;100136.81;714990;1201;114655;-85
2021/07/12 22:40:32;;;;;;;22.50;15.68;;;;;;;21.21;100.00;100166.81;715149;1178;115480;-84
2021/07/12 22:55:35;;;;;;;14.00;9.37;;;;;;;21.14;100.00;100163.32;715104;1202;114701;-85
2021/07/12 23:10:38;;;;;;;14.95;8.85;;;;;;;20.98;100.00;100161.91;714754;1202;115702;-84
2021/07/12 23:25:41;;;;;;;16.53;11.63;;;;;;;20.73;100.00;100142.05;715144;1202;115626;-84
2021/07/12 23:40:43;;;;;;;13.48;9.23;;;;;;;20.58;100.00;100168.84;715094;1202;114404;-84
2021/07/12 23:55:45;;;;;;;13.57;9.87;;;;;;;20.63;100.00;100178.91;715082;1202;115770;-85
